Time;durP1;ratioP1;P1;durP2;ratioP2;P2;SDS_P1;SDS_P2;PMS_P1;PMS_P2;Temp;Humidity;BMP_temperature;BMP_pressure;BME280_temperature;BME280_humidity;BME280_pressure;Samples;Min_cycle;Max_cycle;Signal;HPM_P1;HPM_P2
2021/12/12 00:02:27;;;;;;;81.63;42.38;;;3.60;99.90;;;;;;5007735;28;20412;-59
2021/12/12 00:04:54;;;;;;;74.97;39.72;;;3.60;99.90;;;;;;5007700;28;20042;-59
2021/12/12 00:07:24;;;;;;;81.82;41.45;;;3.60;99.90;;;;;;5007178;28;20030;-58
2021/12/12 00:09:54;;;;;;;79.63;40.97;;;3.60;99.90;;;;;;5006284;28;20054;-59
2021/12/12 00:12:36;;;;;;;85.55;42.17;;;3.60;99.90;;;;;;4989370;28;20042;-59
2021/12/12 00:15:04;;;;;;;86.05;42.08;;;3.60;99.90;;;;;;5006190;28;20436;-58
2021/12/12 00:17:30;;;;;;;75.72;40.58;;;3.60;99.90;;;;;;5004036;28;20135;-58
2021/12/12 00:19:56;;;;;;;82.68;41.28;;;3.60;99.90;;;;;;5006044;28;20053;-58
2021/12/12 00:22:26;;;;;;;74.78;41.67;;;3.60;99.90;;;;;;5007318;28;20054;-59
2021/12/12 00:24:52;;;;;;;81.30;41.17;;;3.60;99.90;;;;;;5005612;28;21149;-59
2021/12/12 00:27:19;;;;;;;77.45;40.03;;;3.60;99.90;;;;;;5008108;28;20181;-60
2021/12/12 00:29:45;;;;;;;75.18;41.40;;;3.60;99.90;;;;;;5004801;28;20065;-58
2021/12/12 00:32:14;;;;;;;75.68;38.47;;;3.70;99.90;;;;;;5010915;28;20056;-58
2021/12/12 00:34:48;;;;;;;72.05;38.85;;;3.70;99.90;;;;;;5008858;28;20065;-59
2021/12/12 00:37:16;;;;;;;75.82;38.25;;;3.70;99.90;;;;;;5007664;28;20562;-59
2021/12/12 00:39:47;;;;;;;74.85;37.53;;;3.70;99.90;;;;;;5013215;28;20176;-59
2021/12/12 00:42:18;;;;;;;69.68;39.42;;;3.70;99.90;;;;;;5014273;28;20040;-59
2021/12/12 00:44:48;;;;;;;80.72;40.75;;;3.70;99.90;;;;;;5012793;28;20069;-58
2021/12/12 00:47:15;;;;;;;77.65;37.75;;;3.70;99.90;;;;;;5010145;28;20053;-58
2021/12/12 00:49:42;;;;;;;70.50;37.53;;;3.70;99.90;;;;;;5005839;28;20054;-59
2021/12/12 00:52:11;;;;;;;68.22;36.78;;;3.70;99.90;;;;;;5004633;28;20408;-59
2021/12/12 00:54:38;;;;;;;62.15;36.13;;;3.70;99.90;;;;;;5007226;28;20123;-58
2021/12/12 00:57:07;;;;;;;62.35;35.70;;;3.80;99.90;;;;;;5008086;28;20041;-58
2021/12/12 00:59:34;;;;;;;67.05;37.45;;;3.80;99.90;;;;;;5013597;28;20046;-59
2021/12/12 01:02:00;;;;;;;66.00;37.47;;;;;;;;;;5011358;28;20085;-57
2021/12/12 01:04:33;;;;;;;67.53;35.83;;;3.80;99.90;;;;;;5012928;28;20045;-59
2021/12/12 01:07:03;;;;;;;66.38;36.22;;;3.70;99.90;;;;;;5010963;28;20042;-58
2021/12/12 01:09:34;;;;;;;72.22;37.70;;;3.80;99.90;;;;;;5011177;28;20065;-58
2021/12/12 01:12:03;;;;;;;67.30;35.95;;;3.70;99.90;;;;;;5013412;28;20049;-59
2021/12/12 01:14:33;;;;;;;73.68;37.05;;;3.80;99.90;;;;;;5013707;28;20046;-59
2021/12/12 01:17:10;;;;;;;67.22;35.65;;;3.80;99.90;;;;;;5012603;28;20068;-58
2021/12/12 01:19:51;;;;;;;61.85;35.13;;;3.80;99.90;;;;;;5012302;28;20053;-58
2021/12/12 01:22:25;;;;;;;62.67;33.78;;;3.80;99.90;;;;;;4993093;28;20761;-59
2021/12/12 01:24:52;;;;;;;59.00;34.40;;;3.80;99.90;;;;;;5007195;28;20042;-58
2021/12/12 01:27:19;;;;;;;65.87;35.30;;;3.80;99.90;;;;;;5012573;28;20479;-58
2021/12/12 01:29:46;;;;;;;63.40;34.47;;;3.80;99.90;;;;;;5015885;28;20499;-59
2021/12/12 01:32:21;;;;;;;61.28;31.60;;;3.80;99.90;;;;;;5014845;28;20565;-58
2021/12/12 01:34:50;;;;;;;54.78;31.67;;;3.80;99.90;;;;;;5012213;28;20046;-59
2021/12/12 01:40:17;;;;;;;56.95;32.53;;;3.80;99.90;;;;;;5014750;28;20089;-58
2021/12/12 01:42:52;;;;;;;53.33;32.30;;;3.80;99.90;;;;;;5014083;28;20037;-59
2021/12/12 01:45:39;;;;;;;58.97;30.55;;;3.90;99.90;;;;;;5014015;28;20052;-59
2021/12/12 01:48:27;;;;;;;55.10;30.02;;;3.90;99.90;;;;;;5007449;28;20053;-58
2021/12/12 01:50:54;;;;;;;;;;;3.90;99.90;;;;;;5012657;28;20064;-58
2021/12/12 01:53:24;;;;;;;45.55;25.33;;;3.90;99.90;;;;;;5010473;28;19921;-59
2021/12/12 01:56:07;;;;;;;42.63;24.27;;;3.90;99.90;;;;;;5007217;28;20053;-59
2021/12/12 01:58:38;;;;;;;60.15;28.85;;;3.90;99.90;;;;;;5011342;28;20129;-58
2021/12/12 02:01:10;;;;;;;52.15;28.00;;;4.00;99.90;;;;;;5011399;28;20046;-59
2021/12/12 02:03:40;;;;;;;48.03;27.15;;;4.00;99.90;;;;;;5004905;28;20072;-58
2021/12/12 02:06:09;;;;;;;49.05;28.40;;;4.00;99.90;;;;;;5017373;28;20050;-58
2021/12/12 02:08:36;;;;;;;46.53;25.98;;;4.00;99.90;;;;;;5017038;28;20112;-58
2021/12/12 02:11:09;;;;;;;46.97;26.77;;;4.00;99.90;;;;;;5016956;28;20041;-56
2021/12/12 02:13:39;;;;;;;53.90;27.50;;;4.00;99.90;;;;;;5019764;28;20045;-59
2021/12/12 02:16:06;;;;;;;46.80;25.95;;;4.00;99.90;;;;;;5020955;28;20101;-58
2021/12/12 02:18:36;;;;;;;52.72;27.55;;;4.00;99.90;;;;;;5020766;28;20038;-58
2021/12/12 02:21:21;;;;;;;42.42;25.92;;;4.10;99.90;;;;;;5020404;28;20040;-59
2021/12/12 02:24:16;;;;;;;49.03;26.00;;;4.00;99.90;;;;;;5010071;28;20109;-58
2021/12/12 02:35:37;;;;;;;43.60;23.80;;;4.10;99.90;;;;;;5027002;28;20050;-57
2021/12/12 02:38:04;;;;;;;43.10;24.05;;;4.10;99.90;;;;;;5028097;28;21622;-58
2021/12/12 02:40:35;;;;;;;44.33;25.98;;;4.10;99.90;;;;;;5029825;28;20038;-58
2021/12/12 02:43:01;;;;;;;50.40;24.77;;;4.10;99.90;;;;;;5028228;28;20038;-58
2021/12/12 02:45:30;;;;;;;44.38;23.85;;;4.10;99.90;;;;;;5022469;28;20523;-59
2021/12/12 02:48:01;;;;;;;43.97;24.17;;;4.10;99.90;;;;;;5020274;28;20060;-58
2021/12/12 02:50:35;;;;;;;47.88;24.20;;;4.10;99.90;;;;;;5020089;28;20057;-58
2021/12/12 02:53:07;;;;;;;41.55;22.77;;;4.10;99.90;;;;;;5021002;28;20042;-59
2021/12/12 02:55:38;;;;;;;43.97;22.45;;;4.10;99.90;;;;;;5015187;28;20061;-58
2021/12/12 02:58:07;;;;;;;43.28;21.42;;;4.10;99.90;;;;;;5019545;28;20046;-60
2021/12/12 03:00:37;;;;;;;43.78;23.08;;;4.10;99.90;;;;;;5019701;28;20048;-58
2021/12/12 03:03:03;;;;;;;35.35;22.05;;;4.10;99.90;;;;;;5021911;28;20077;-59
2021/12/12 03:05:36;;;;;;;47.55;22.40;;;4.10;99.90;;;;;;5021522;28;20038;-58
2021/12/12 03:08:02;;;;;;;45.58;24.38;;;4.20;99.90;;;;;;5023234;28;20381;-58
2021/12/12 03:10:33;;;;;;;43.22;22.23;;;4.20;99.90;;;;;;5022363;28;20556;-58
2021/12/12 03:12:59;;;;;;;43.05;21.05;;;4.20;99.90;;;;;;5020161;28;20062;-56
2021/12/12 03:15:29;;;;;;;36.80;20.85;;;4.20;99.90;;;;;;5019080;28;20097;-59
2021/12/12 03:17:58;;;;;;;33.85;20.88;;;4.20;99.90;;;;;;5018878;28;20080;-58
2021/12/12 03:20:31;;;;;;;37.67;21.70;;;4.20;99.90;;;;;;5016903;28;20042;-58
2021/12/12 03:22:59;;;;;;;47.70;22.30;;;4.20;99.90;;;;;;5018543;28;20054;-58
2021/12/12 03:25:24;;;;;;;39.17;20.48;;;4.20;99.90;;;;;;5019552;28;20049;-58
2021/12/12 03:27:51;;;;;;;37.50;20.85;;;4.20;99.90;;;;;;5022168;28;20042;-58
2021/12/12 03:30:18;;;;;;;43.10;19.95;;;4.30;99.90;;;;;;5024044;28;20037;-58
2021/12/12 03:32:44;;;;;;;37.35;19.50;;;4.30;99.90;;;;;;5022251;28;20053;-56
2021/12/12 03:35:10;;;;;;;34.33;19.00;;;4.30;99.90;;;;;;5023690;28;20096;-58
2021/12/12 03:37:37;;;;;;;37.85;20.95;;;4.30;99.90;;;;;;5025961;28;20408;-58
2021/12/12 03:40:24;;;;;;;42.60;19.95;;;4.30;99.90;;;;;;5021709;28;21447;-58
2021/12/12 03:42:52;;;;;;;46.08;23.35;;;4.30;99.90;;;;;;5017189;28;20046;-57
2021/12/12 03:45:19;;;;;;;41.10;21.73;;;4.30;99.90;;;;;;5016413;28;20053;-57
2021/12/12 03:47:52;;;;;;;37.78;21.17;;;4.30;99.90;;;;;;5017100;28;20041;-58
2021/12/12 03:50:26;;;;;;;44.20;21.35;;;4.30;99.90;;;;;;5015892;28;20104;-59
2021/12/12 03:52:52;;;;;;;43.83;21.33;;;;;;;;;;5014814;28;20038;-59
2021/12/12 03:55:18;;;;;;;38.65;20.05;;;4.30;99.90;;;;;;5015952;28;20046;-58
2021/12/12 03:57:44;;;;;;;35.65;21.00;;;4.40;99.90;;;;;;5017944;28;20040;-58
2021/12/12 04:00:17;;;;;;;41.17;21.95;;;4.40;99.90;;;;;;5017693;28;20102;-59
2021/12/12 04:02:42;;;;;;;39.10;20.98;;;4.40;99.90;;;;;;5012248;28;20026;-59
2021/12/12 04:05:08;;;;;;;32.33;20.13;;;4.40;99.90;;;;;;5014629;28;20065;-58
2021/12/12 04:07:34;;;;;;;31.25;18.05;;;4.40;99.90;;;;;;5017749;28;20046;-57
2021/12/12 04:10:00;;;;;;;37.22;20.65;;;4.40;99.90;;;;;;5018237;28;20735;-58
2021/12/12 04:12:26;;;;;;;28.60;20.33;;;4.40;99.90;;;;;;5017106;28;20046;-58
2021/12/12 04:14:54;;;;;;;35.65;18.92;;;4.40;99.90;;;;;;5015709;28;20033;-57
2021/12/12 04:17:25;;;;;;;34.75;20.25;;;4.40;99.90;;;;;;5011092;28;20617;-58
2021/12/12 04:19:54;;;;;;;36.00;20.92;;;4.40;99.90;;;;;;5013799;28;20033;-58
2021/12/12 04:22:20;;;;;;;38.28;20.63;;;4.40;99.90;;;;;;5014084;28;20088;-58
2021/12/12 04:24:50;;;;;;;37.53;20.70;;;4.40;99.90;;;;;;5003965;28;20097;-57
2021/12/12 04:27:18;;;;;;;40.78;20.13;;;4.40;99.90;;;;;;5015617;28;20585;-58
2021/12/12 04:29:47;;;;;;;33.25;19.25;;;4.50;99.90;;;;;;5015829;28;20092;-58
2021/12/12 04:32:17;;;;;;;27.27;17.63;;;4.50;99.90;;;;;;5017582;28;20042;-58
2021/12/12 04:34:51;;;;;;;27.38;17.48;;;4.50;99.90;;;;;;5016430;28;20038;-59
2021/12/12 04:37:18;;;;;;;29.95;17.50;;;4.50;99.90;;;;;;5016595;28;20054;-59
2021/12/12 04:39:50;;;;;;;31.20;18.40;;;4.50;99.90;;;;;;5015830;28;20041;-58
2021/12/12 04:42:23;;;;;;;32.08;18.70;;;4.50;99.90;;;;;;5020396;28;20071;-57
2021/12/12 04:44:51;;;;;;;33.13;16.73;;;4.50;99.90;;;;;;5017388;28;20050;-59
2021/12/12 04:50:25;;;;;;;23.40;15.15;;;4.50;99.90;;;;;;5018460;28;20073;-58
2021/12/12 04:53:12;;;;;;;35.60;17.65;;;4.50;99.90;;;;;;5013216;28;20046;-57
2021/12/12 04:55:51;;;;;;;28.80;17.08;;;4.50;99.90;;;;;;5017576;28;20042;-58
2021/12/12 04:58:23;;;;;;;27.80;15.13;;;4.50;99.90;;;;;;5015361;28;20045;-58
2021/12/12 05:00:50;;;;;;;31.10;17.73;;;4.50;99.90;;;;;;5010878;28;20430;-58
2021/12/12 05:03:33;;;;;;;25.00;14.68;;;4.50;99.90;;;;;;5014507;28;20054;-58
2021/12/12 05:06:21;;;;;;;30.80;16.35;;;4.50;99.90;;;;;;5015066;28;20054;-59
2021/12/12 05:08:52;;;;;;;27.30;13.98;;;4.50;99.90;;;;;;5016190;28;20050;-58
2021/12/12 05:11:26;;;;;;;30.60;15.57;;;4.60;99.90;;;;;;5014705;28;20046;-57
2021/12/12 05:13:59;;;;;;;24.00;14.40;;;4.60;99.90;;;;;;5016528;28;20033;-58
2021/12/12 05:16:30;;;;;;;24.48;14.63;;;4.60;99.90;;;;;;5011013;28;20042;-58
2021/12/12 05:19:04;;;;;;;25.45;14.90;;;4.60;99.90;;;;;;5012303;28;20123;-57
2021/12/12 05:21:36;;;;;;;22.90;14.20;;;4.60;99.90;;;;;;5005529;28;20046;-58
2021/12/12 05:24:05;;;;;;;25.42;14.35;;;4.70;99.90;;;;;;5012424;28;20380;-59
2021/12/12 05:26:36;;;;;;;24.63;14.68;;;4.70;99.90;;;;;;5002079;28;20045;-58
2021/12/12 05:29:19;;;;;;;22.70;13.45;;;4.70;99.90;;;;;;5011959;28;20038;-58
2021/12/12 05:31:51;;;;;;;23.83;14.32;;;4.70;99.90;;;;;;5011664;28;20034;-57
2021/12/12 05:34:18;;;;;;;20.70;12.60;;;4.70;99.90;;;;;;5011672;28;20404;-59
2021/12/12 05:36:45;;;;;;;18.33;13.23;;;4.70;99.90;;;;;;5010589;28;20052;-58
2021/12/12 05:39:12;;;;;;;17.30;12.13;;;4.80;99.90;;;;;;5011136;28;20160;-57
2021/12/12 05:41:37;;;;;;;19.92;12.60;;;4.70;99.90;;;;;;5008334;28;20103;-58
2021/12/12 05:44:04;;;;;;;18.77;12.52;;;4.70;99.90;;;;;;5011147;28;20054;-58
2021/12/12 05:46:31;;;;;;;18.23;12.38;;;4.70;99.90;;;;;;5009001;28;20038;-58
2021/12/12 05:48:59;;;;;;;18.25;12.52;;;4.70;99.90;;;;;;5007721;28;20133;-59
2021/12/12 05:51:25;;;;;;;17.13;11.68;;;4.70;99.90;;;;;;5009988;28;20062;-58
2021/12/12 05:53:54;;;;;;;18.73;12.13;;;4.80;99.90;;;;;;5007030;28;20092;-59
2021/12/12 05:56:23;;;;;;;16.55;11.05;;;4.70;99.90;;;;;;5007948;28;20054;-58
2021/12/12 05:58:49;;;;;;;18.65;11.90;;;4.80;99.90;;;;;;5010844;28;20046;-58
2021/12/12 06:01:15;;;;;;;15.45;11.63;;;4.70;99.90;;;;;;5006890;28;20054;-58
2021/12/12 06:03:42;;;;;;;17.80;11.45;;;4.70;99.90;;;;;;5012219;28;20033;-58
2021/12/12 06:06:15;;;;;;;18.85;11.50;;;4.80;99.90;;;;;;5008352;28;20046;-58
2021/12/12 06:08:43;;;;;;;18.73;11.63;;;4.80;99.90;;;;;;5011503;28;20508;-58
2021/12/12 06:11:10;;;;;;;13.60;10.77;;;4.80;99.90;;;;;;5009884;28;20504;-59
2021/12/12 06:13:38;;;;;;;13.65;10.68;;;4.80;99.90;;;;;;5012075;28;20050;-59
2021/12/12 06:16:05;;;;;;;15.23;10.43;;;4.80;99.90;;;;;;5009677;28;20042;-57
2021/12/12 06:18:32;;;;;;;13.93;10.45;;;4.80;99.90;;;;;;5010285;28;20042;-58
2021/12/12 06:20:58;;;;;;;15.30;10.75;;;4.80;99.90;;;;;;5007685;28;20045;-58
2021/12/12 06:23:25;;;;;;;16.55;10.48;;;4.80;99.90;;;;;;5009367;28;20042;-59
2021/12/12 06:25:51;;;;;;;13.50;10.38;;;4.80;99.90;;;;;;5011916;28;20514;-59
2021/12/12 06:28:24;;;;;;;16.90;11.25;;;4.90;99.90;;;;;;5010719;28;20756;-58
2021/12/12 06:30:51;;;;;;;15.80;10.93;;;4.80;99.90;;;;;;5008733;28;20137;-57
2021/12/12 06:33:16;;;;;;;16.23;10.90;;;4.90;99.90;;;;;;5010176;28;20465;-58
2021/12/12 06:35:42;;;;;;;16.83;11.38;;;4.90;99.90;;;;;;5010746;28;20085;-59
2021/12/12 06:38:10;;;;;;;16.48;10.90;;;4.90;99.90;;;;;;5009725;28;20037;-58
2021/12/12 06:40:38;;;;;;;14.40;9.65;;;4.90;99.90;;;;;;5005571;28;20058;-59
2021/12/12 06:43:05;;;;;;;19.90;11.70;;;4.90;99.90;;;;;;5009624;28;20464;-58
2021/12/12 06:45:32;;;;;;;14.93;10.90;;;4.90;99.90;;;;;;5008408;28;20057;-58
2021/12/12 06:47:59;;;;;;;19.73;11.57;;;4.90;99.90;;;;;;5009584;28;20500;-59
2021/12/12 06:50:26;;;;;;;17.98;12.55;;;4.90;99.90;;;;;;5009874;28;20467;-58
2021/12/12 06:52:55;;;;;;;16.40;10.93;;;4.90;99.90;;;;;;5005398;28;20046;-59
2021/12/12 06:55:22;;;;;;;15.98;11.35;;;5.00;99.90;;;;;;5008972;28;20145;-59
2021/12/12 06:57:49;;;;;;;17.08;12.50;;;5.00;99.90;;;;;;5012777;28;20050;-58
2021/12/12 07:00:20;;;;;;;22.33;13.07;;;5.00;99.90;;;;;;5012837;28;20038;-58
2021/12/12 07:02:46;;;;;;;19.85;12.25;;;5.00;99.90;;;;;;5010312;28;20040;-58
2021/12/12 07:05:17;;;;;;;18.38;13.00;;;5.00;99.90;;;;;;5012018;28;20045;-57
2021/12/12 07:07:44;;;;;;;19.48;12.23;;;5.10;99.90;;;;;;5009591;28;20038;-57
2021/12/12 07:10:11;;;;;;;23.13;13.57;;;5.10;99.90;;;;;;5009063;28;20068;-58
2021/12/12 07:12:39;;;;;;;19.63;14.15;;;5.10;99.90;;;;;;5014284;28;20507;-59
2021/12/12 07:15:09;;;;;;;22.58;13.30;;;5.10;99.90;;;;;;5013929;28;20046;-58
2021/12/12 07:17:35;;;;;;;18.08;12.65;;;5.10;99.90;;;;;;5013009;28;20046;-58
2021/12/12 07:20:04;;;;;;;23.27;13.45;;;5.10;99.90;;;;;;5010287;28;20048;-58
2021/12/12 07:22:30;;;;;;;18.08;13.90;;;5.10;99.90;;;;;;5013126;28;20123;-58
2021/12/12 07:25:00;;;;;;;18.55;13.05;;;5.10;99.90;;;;;;5013975;28;20038;-58
2021/12/12 07:27:26;;;;;;;17.85;12.88;;;5.20;99.90;;;;;;5011051;28;20053;-57
2021/12/12 07:29:55;;;;;;;20.83;14.10;;;5.10;99.90;;;;;;5012535;28;20670;-58
2021/12/12 07:32:21;;;;;;;22.63;13.77;;;5.20;99.90;;;;;;5013416;28;20135;-58
2021/12/12 07:34:46;;;;;;;23.50;14.50;;;5.20;99.90;;;;;;5013414;28;20101;-57
2021/12/12 07:37:12;;;;;;;19.52;14.23;;;5.20;99.90;;;;;;5011890;28;20042;-58
2021/12/12 07:39:41;;;;;;;22.70;13.90;;;5.20;99.90;;;;;;5009610;28;20062;-58
2021/12/12 07:42:08;;;;;;;21.73;14.30;;;5.20;99.90;;;;;;5012659;28;20558;-58
2021/12/12 07:44:36;;;;;;;22.07;14.73;;;5.20;99.90;;;;;;5013676;28;20100;-58
2021/12/12 07:47:04;;;;;;;24.20;15.18;;;5.30;99.90;;;;;;5014210;28;20052;-58
2021/12/12 07:49:34;;;;;;;19.38;14.00;;;5.30;99.90;;;;;;5013979;28;20048;-58
2021/12/12 07:52:01;;;;;;;25.10;14.82;;;;;;;;;;5010963;28;20132;-58
2021/12/12 07:54:27;;;;;;;20.87;14.83;;;5.30;99.90;;;;;;5012410;28;20420;-59
2021/12/12 07:56:53;;;;;;;21.50;15.13;;;5.30;99.90;;;;;;5011644;28;20034;-58
2021/12/12 07:59:19;;;;;;;23.02;15.20;;;5.30;99.90;;;;;;5012815;28;20440;-57
2021/12/12 08:01:48;;;;;;;27.95;15.70;;;5.40;99.90;;;;;;5011257;28;20088;-59
2021/12/12 08:04:16;;;;;;;24.80;15.95;;;5.40;99.90;;;;;;5010288;28;20496;-58
2021/12/12 08:06:42;;;;;;;24.13;15.48;;;5.40;99.90;;;;;;5010231;28;20038;-59
2021/12/12 08:09:09;;;;;;;25.63;16.65;;;5.40;99.90;;;;;;5012165;28;20061;-59
2021/12/12 08:11:35;;;;;;;25.92;15.95;;;5.50;99.90;;;;;;5011755;28;20060;-58
2021/12/12 08:14:05;;;;;;;25.33;16.05;;;5.50;99.90;;;;;;5014705;28;20038;-58
2021/12/12 08:16:31;;;;;;;26.67;16.52;;;5.50;99.90;;;;;;5015238;28;20034;-58
2021/12/12 08:18:58;;;;;;;25.70;16.35;;;5.50;99.90;;;;;;5010861;28;20044;-57
2021/12/12 08:21:24;;;;;;;34.78;18.25;;;5.50;99.90;;;;;;5012974;28;20041;-59
2021/12/12 08:23:51;;;;;;;25.23;16.02;;;5.50;99.90;;;;;;5014425;28;20186;-59
2021/12/12 08:26:18;;;;;;;27.83;16.80;;;5.60;99.90;;;;;;5011245;28;20050;-57
2021/12/12 08:28:44;;;;;;;29.88;17.40;;;5.60;99.90;;;;;;5012329;28;20049;-59
2021/12/12 08:31:12;;;;;;;33.35;17.20;;;5.60;99.90;;;;;;5010823;28;20057;-58
2021/12/12 08:33:37;;;;;;;22.90;16.50;;;5.70;99.90;;;;;;5004994;28;20045;-58
2021/12/12 08:36:03;;;;;;;26.20;17.33;;;5.70;99.90;;;;;;5008821;28;20033;-58
2021/12/12 08:38:29;;;;;;;26.63;16.38;;;5.70;99.90;;;;;;5008341;28;20379;-58
2021/12/12 08:40:59;;;;;;;23.73;16.02;;;5.70;99.90;;;;;;5002292;28;20431;-58
2021/12/12 08:43:26;;;;;;;25.50;16.65;;;5.70;99.90;;;;;;5001048;28;20037;-59
2021/12/12 08:45:55;;;;;;;26.63;16.53;;;5.80;99.90;;;;;;5009852;28;20148;-59
2021/12/12 08:48:24;;;;;;;22.90;16.08;;;5.80;99.90;;;;;;5010197;28;20569;-59
2021/12/12 08:50:54;;;;;;;24.60;16.30;;;5.80;99.90;;;;;;5010564;28;20042;-58
2021/12/12 08:53:20;;;;;;;25.20;16.08;;;5.90;99.90;;;;;;5011206;28;20057;-59
2021/12/12 08:55:49;;;;;;;24.05;15.82;;;5.90;99.90;;;;;;5009993;28;20050;-59
2021/12/12 08:58:20;;;;;;;22.95;15.63;;;5.90;99.90;;;;;;5009452;28;20081;-58
2021/12/12 09:01:01;;;;;;;22.83;15.80;;;6.00;99.90;;;;;;5011357;28;20184;-58
2021/12/12 09:03:36;;;;;;;24.55;15.88;;;6.00;99.90;;;;;;5011932;28;20052;-58
2021/12/12 09:06:03;;;;;;;25.38;16.48;;;6.00;99.90;;;;;;5007839;28;20046;-58
2021/12/12 09:08:46;;;;;;;25.60;16.30;;;6.10;99.90;;;;;;5011873;28;20081;-58
2021/12/12 09:11:26;;;;;;;22.25;15.48;;;6.10;99.90;;;;;;5006203;28;20076;-58
2021/12/12 09:14:10;;;;;;;27.23;16.20;;;6.10;99.90;;;;;;5009041;28;20029;-58
2021/12/12 09:16:47;;;;;;;25.10;15.82;;;6.10;99.90;;;;;;5006775;28;20432;-59
2021/12/12 09:19:24;;;;;;;25.95;16.33;;;6.20;99.90;;;;;;5010032;28;20042;-58
2021/12/12 09:22:03;;;;;;;22.93;15.33;;;6.20;99.90;;;;;;5007089;28;20049;-58
2021/12/12 09:24:44;;;;;;;23.10;17.25;;;6.20;99.90;;;;;;5005181;28;20046;-58
2021/12/12 09:27:22;;;;;;;28.88;16.88;;;6.30;99.90;;;;;;5011365;28;20095;-59
2021/12/12 09:29:50;;;;;;;24.73;15.93;;;6.30;99.90;;;;;;5007601;28;20395;-60
2021/12/12 09:32:25;;;;;;;23.55;15.75;;;6.30;99.90;;;;;;5010208;28;20045;-59
2021/12/12 09:35:11;;;;;;;26.83;16.33;;;6.40;99.90;;;;;;5004171;28;20050;-60
2021/12/12 09:37:43;;;;;;;27.95;17.50;;;6.40;99.90;;;;;;5007459;28;20104;-60
2021/12/12 09:40:25;;;;;;;26.90;17.17;;;6.40;99.90;;;;;;5005885;28;20424;-60
2021/12/12 09:43:25;;;;;;;26.95;16.63;;;6.50;99.90;;;;;;5007971;28;20069;-59
2021/12/12 09:46:39;;;;;;;24.73;16.77;;;6.50;99.90;;;;;;5009522;28;20508;-59
2021/12/12 09:53:08;;;;;;;29.65;18.13;;;6.60;99.90;;;;;;4968816;28;20046;-59
2021/12/12 09:55:44;;;;;;;31.58;17.67;;;6.60;99.90;;;;;;4969790;28;20573;-59
2021/12/12 09:58:35;;;;;;;27.02;17.48;;;6.60;99.90;;;;;;4969863;28;20154;-59
2021/12/12 10:01:05;;;;;;;31.00;17.92;;;6.70;99.90;;;;;;4975572;28;20038;-59
2021/12/12 10:03:45;;;;;;;26.55;18.13;;;6.70;99.90;;;;;;4973118;28;20070;-59
2021/12/12 10:06:19;;;;;;;29.50;18.45;;;6.70;99.90;;;;;;4970673;28;20528;-59
2021/12/12 10:09:22;;;;;;;35.38;19.33;;;6.70;99.90;;;;;;4971067;28;20163;-60
2021/12/12 10:12:02;;;;;;;30.95;18.95;;;6.80;99.90;;;;;;4946844;28;20489;-60
2021/12/12 10:15:04;;;;;;;39.80;18.90;;;6.80;99.90;;;;;;4970391;28;20050;-60
2021/12/12 10:18:02;;;;;;;29.80;18.30;;;6.90;99.90;;;;;;4964182;28;20051;-59
2021/12/12 10:20:35;;;;;;;;;;;6.90;99.90;;;;;;4967497;28;20586;-59
2021/12/12 10:23:50;;;;;;;30.15;17.35;;;6.90;99.90;;;;;;4975975;28;19926;-59
2021/12/12 10:26:27;;;;;;;31.98;18.40;;;7.00;99.90;;;;;;4968199;28;20053;-59
2021/12/12 10:28:59;;;;;;;30.50;18.08;;;7.00;99.90;;;;;;5012405;28;20057;-59
2021/12/12 10:31:53;;;;;;;26.10;17.23;;;7.00;99.90;;;;;;5013063;28;20066;-59
2021/12/12 10:34:24;;;;;;;25.40;16.30;;;7.00;99.90;;;;;;5015153;28;20057;-59
2021/12/12 10:37:05;;;;;;;25.55;16.35;;;7.10;99.90;;;;;;5014714;28;20054;-59
2021/12/12 10:39:40;;;;;;;27.70;16.92;;;7.10;99.90;;;;;;5008601;28;20054;-59
2021/12/12 10:42:13;;;;;;;31.42;17.52;;;7.10;99.90;;;;;;5014915;28;20080;-60
2021/12/12 10:44:48;;;;;;;28.05;16.85;;;7.20;99.90;;;;;;5013265;28;20045;-59
2021/12/12 10:47:36;;;;;;;28.98;16.95;;;7.20;99.90;;;;;;4996695;28;20042;-59
2021/12/12 10:50:13;;;;;;;30.63;16.83;;;7.30;99.90;;;;;;5014009;28;20053;-59
2021/12/12 10:52:51;;;;;;;25.60;16.20;;;7.30;99.90;;;;;;5010591;28;20046;-60
2021/12/12 10:55:21;;;;;;;31.02;17.13;;;7.30;99.90;;;;;;5011709;28;20480;-59
2021/12/12 10:58:25;;;;;;;26.02;16.17;;;7.40;99.90;;;;;;5013095;28;20244;-59
2021/12/12 11:01:01;;;;;;;28.85;16.15;;;7.40;99.90;;;;;;5009916;28;20117;-59
2021/12/12 11:03:51;;;;;;;21.85;15.20;;;7.40;99.90;;;;;;5013537;28;20120;-60
2021/12/12 11:06:25;;;;;;;22.10;14.10;;;7.50;99.90;;;;;;5012853;28;20050;-59
2021/12/12 11:09:12;;;;;;;22.77;15.02;;;7.50;99.90;;;;;;5014274;28;20104;-60
2021/12/12 11:11:48;;;;;;;23.05;14.13;;;7.50;99.90;;;;;;5013714;28;20099;-59
2021/12/12 11:14:27;;;;;;;21.88;13.35;;;7.50;99.90;;;;;;5014570;28;20041;-58
2021/12/12 11:17:00;;;;;;;19.70;13.43;;;7.50;99.90;;;;;;5012836;28;21247;-59
2021/12/12 11:19:39;;;;;;;23.40;14.05;;;7.50;99.90;;;;;;5014678;28;20042;-59
2021/12/12 11:22:15;;;;;;;20.45;13.50;;;7.60;99.90;;;;;;5014424;28;20108;-60
2021/12/12 11:24:48;;;;;;;22.15;13.70;;;7.60;99.90;;;;;;5011603;28;20488;-60
2021/12/12 11:27:23;;;;;;;21.17;13.43;;;7.60;99.90;;;;;;5012970;28;20331;-59
2021/12/12 11:29:56;;;;;;;22.80;13.35;;;7.60;99.90;;;;;;5015186;28;20042;-58
2021/12/12 11:32:27;;;;;;;19.17;13.80;;;7.70;99.90;;;;;;5013099;28;20427;-59
2021/12/12 11:34:55;;;;;;;18.50;13.15;;;7.70;99.90;;;;;;5005581;28;20061;-60
2021/12/12 11:37:37;;;;;;;22.58;13.73;;;7.70;99.90;;;;;;5010894;28;20053;-59
2021/12/12 11:40:28;;;;;;;19.63;13.20;;;7.70;99.90;;;;;;5012610;28;20511;-60
2021/12/12 11:43:17;;;;;;;18.35;13.05;;;7.70;99.90;;;;;;5014676;28;20054;-60
2021/12/12 11:46:10;;;;;;;19.10;12.43;;;7.80;99.90;;;;;;5011162;28;20081;-59
2021/12/12 11:48:59;;;;;;;19.00;13.07;;;7.80;99.90;;;;;;5009520;28;20089;-59
2021/12/12 11:51:38;;;;;;;17.98;12.63;;;7.90;99.90;;;;;;5009383;28;20154;-59
2021/12/12 11:54:24;;;;;;;16.10;11.88;;;7.90;99.90;;;;;;5015487;28;20050;-59
2021/12/12 11:57:00;;;;;;;20.17;13.60;;;7.90;99.90;;;;;;5015289;28;20538;-59
2021/12/12 11:59:39;;;;;;;22.60;14.18;;;7.90;99.90;;;;;;5008906;28;20535;-60
2021/12/12 12:02:23;;;;;;;23.20;14.30;;;7.90;99.90;;;;;;4994269;28;20046;-58
2021/12/12 12:05:05;;;;;;;18.50;13.55;;;7.90;99.90;;;;;;5012213;28;20083;-59
2021/12/12 12:08:14;;;;;;;21.75;14.25;;;7.90;99.90;;;;;;5010886;28;20052;-59
2021/12/12 12:10:57;;;;;;;24.23;14.70;;;7.90;99.90;;;;;;5013518;28;20054;-59
2021/12/12 12:13:55;;;;;;;23.35;14.80;;;8.10;99.90;;;;;;4993617;28;20137;-59
2021/12/12 12:16:29;;;;;;;24.80;15.65;;;7.90;99.90;;;;;;5014038;28;20129;-59
2021/12/12 12:19:24;;;;;;;24.27;15.48;;;8.00;99.90;;;;;;5014352;28;20048;-59
2021/12/12 12:21:58;;;;;;;26.00;16.40;;;8.00;99.90;;;;;;5014429;28;20046;-59
2021/12/12 12:24:39;;;;;;;24.73;15.40;;;7.90;99.90;;;;;;5013589;28;20053;-59
2021/12/12 12:27:10;;;;;;;25.45;15.63;;;8.00;99.90;;;;;;4991804;28;20037;-59
2021/12/12 12:30:00;;;;;;;25.25;16.02;;;7.90;99.90;;;;;;5009721;28;20054;-59
2021/12/12 12:33:03;;;;;;;26.55;15.57;;;8.00;99.90;;;;;;5010536;28;20050;-59
2021/12/12 12:36:06;;;;;;;25.38;15.13;;;8.00;99.90;;;;;;5009996;28;20602;-60
2021/12/12 12:39:20;;;;;;;25.45;15.05;;;8.00;99.90;;;;;;5012221;28;20045;-58
2021/12/12 12:42:01;;;;;;;23.30;15.02;;;8.00;99.90;;;;;;5012761;28;20037;-59
2021/12/12 12:45:08;;;;;;;25.17;15.77;;;8.00;99.90;;;;;;5012615;28;20062;-60
2021/12/12 12:48:01;;;;;;;26.85;15.32;;;8.00;99.90;;;;;;4978156;28;20054;-60
2021/12/12 12:51:05;;;;;;;29.98;16.48;;;8.00;99.90;;;;;;5012301;28;20054;-59
2021/12/12 12:53:59;;;;;;;24.92;15.32;;;8.10;99.90;;;;;;5009134;28;20476;-60
2021/12/12 12:57:06;;;;;;;26.73;15.40;;;8.10;99.90;;;;;;5012101;28;20041;-59
2021/12/12 13:00:11;;;;;;;27.40;15.90;;;8.10;99.90;;;;;;5013343;28;20417;-60
2021/12/12 13:03:10;;;;;;;28.38;16.45;;;8.20;99.90;;;;;;5009651;28;20046;-58
2021/12/12 13:05:49;;;;;;;28.70;16.42;;;8.20;99.90;;;;;;5012871;28;20073;-60
2021/12/12 13:08:48;;;;;;;27.60;16.08;;;8.20;99.90;;;;;;4993580;28;20477;-58
2021/12/12 13:11:18;;;;;;;31.55;17.00;;;8.30;99.90;;;;;;5012868;28;20038;-60
2021/12/12 13:13:52;;;;;;;27.48;17.08;;;8.30;99.90;;;;;;5013507;28;20485;-59
2021/12/12 13:17:02;;;;;;;35.28;18.10;;;8.30;99.90;;;;;;5013288;28;20133;-59
2021/12/12 13:20:06;;;;;;;32.70;18.30;;;8.30;99.90;;;;;;4919118;29;20483;-59
2021/12/12 13:23:11;;;;;;;33.33;18.38;;;8.40;99.90;;;;;;4856795;29;20049;-59
2021/12/12 13:25:53;;;;;;;34.22;18.30;;;8.40;99.90;;;;;;4819532;29;20053;-59
2021/12/12 13:29:03;;;;;;;30.85;17.90;;;8.40;99.90;;;;;;4841511;29;20069;-59
2021/12/12 13:31:39;;;;;;;39.25;19.48;;;8.60;99.90;;;;;;4856706;29;20065;-59
2021/12/12 13:34:24;;;;;;;39.60;18.83;;;;;;;;;;4856529;29;20539;-58